createdAt,value
2017-06-21T00:00:19.896Z,25.04
2017-06-21T00:01:20.540Z,25.03
2017-06-21T00:02:21.184Z,24.99
2017-06-21T00:03:21.827Z,25.03
2017-06-21T00:04:22.470Z,25.03
2017-06-21T00:05:23.115Z,24.99
2017-06-21T00:06:23.760Z,25.04
2017-06-21T00:07:24.402Z,24.98
2017-06-21T00:08:25.046Z,24.98
2017-06-21T00:09:25.888Z,24.98
2017-06-21T00:10:26.534Z,24.93
2017-06-21T00:11:27.187Z,24.96
2017-06-21T00:12:27.824Z,24.92
2017-06-21T00:13:28.465Z,24.86
2017-06-21T00:14:29.112Z,24.91
2017-06-21T00:15:29.754Z,24.86
2017-06-21T00:16:30.399Z,24.91
2017-06-21T00:17:31.242Z,24.91
2017-06-21T00:18:31.885Z,24.85
2017-06-21T00:19:32.531Z,24.84
2017-06-21T00:20:33.175Z,24.85
2017-06-21T00:21:33.817Z,24.84
2017-06-21T00:22:34.463Z,24.92
2017-06-21T00:23:35.106Z,24.89
2017-06-21T00:24:35.750Z,24.86
2017-06-21T00:25:36.544Z,24.81
2017-06-21T00:26:37.189Z,24.80
2017-06-21T00:27:37.835Z,24.85
2017-06-21T00:28:38.480Z,24.76
2017-06-21T00:29:39.125Z,24.77
2017-06-21T00:30:39.828Z,24.74
2017-06-21T00:31:40.471Z,24.76
2017-06-21T00:32:41.113Z,24.85
2017-06-21T00:33:41.907Z,24.78
2017-06-21T00:34:42.553Z,24.76
2017-06-21T00:35:43.198Z,24.76
2017-06-21T00:36:43.840Z,24.69
2017-06-21T00:37:44.485Z,24.77
2017-06-21T00:38:45.130Z,24.69
2017-06-21T00:39:45.771Z,24.76
2017-06-21T00:40:46.414Z,24.69
2017-06-21T00:41:47.259Z,24.73
2017-06-21T00:42:47.906Z,24.73
2017-06-21T00:43:48.549Z,24.65
2017-06-21T00:44:49.191Z,24.76
2017-06-21T00:45:49.834Z,24.73
2017-06-21T00:46:50.479Z,24.60
2017-06-21T00:47:51.124Z,24.61
2017-06-21T00:48:51.766Z,24.57
2017-06-21T00:49:52.409Z,24.60
2017-06-21T00:50:53.253Z,24.65
2017-06-21T00:51:53.897Z,24.61
2017-06-21T00:52:54.544Z,24.63
2017-06-21T00:53:55.187Z,24.61
2017-06-21T00:54:55.832Z,24.57
2017-06-21T00:55:56.476Z,24.57
2017-06-21T00:56:57.119Z,24.60
2017-06-21T00:57:57.761Z,24.61
2017-06-21T00:58:58.605Z,24.54
2017-06-21T00:59:59.248Z,24.58
2017-06-21T01:00:59.890Z,24.60
2017-06-21T01:02:00.534Z,24.58
2017-06-21T01:03:01.176Z,24.61
2017-06-21T01:04:01.821Z,24.55
2017-06-21T01:05:02.465Z,24.55
2017-06-21T01:06:03.107Z,24.58
2017-06-21T01:07:03.900Z,24.58
2017-06-21T01:08:04.545Z,24.54
2017-06-21T01:09:05.191Z,24.55
2017-06-21T01:10:05.836Z,24.55
2017-06-21T01:11:06.477Z,24.58
2017-06-21T01:12:07.119Z,24.54
2017-06-21T01:13:07.765Z,24.58
2017-06-21T01:14:08.406Z,24.58
2017-06-21T01:15:09.253Z,24.57
2017-06-21T01:16:09.894Z,24.57
2017-06-21T01:17:10.540Z,24.54
2017-06-21T01:18:11.185Z,24.55
2017-06-21T01:19:11.826Z,24.60
2017-06-21T01:20:12.476Z,24.57
2017-06-21T01:21:13.117Z,24.54
2017-06-21T01:22:13.761Z,24.48
2017-06-21T01:23:14.405Z,24.54
2017-06-21T01:24:15.346Z,24.60
2017-06-21T01:25:15.991Z,24.53
2017-06-21T01:26:16.633Z,24.47
2017-06-21T01:27:17.276Z,24.54
2017-06-21T01:28:17.922Z,24.50
2017-06-21T01:29:18.567Z,24.50
2017-06-21T01:30:19.210Z,24.57
2017-06-21T01:31:19.855Z,24.61
2017-06-21T01:32:20.698Z,24.45
2017-06-21T01:33:21.342Z,24.54
2017-06-21T01:34:21.986Z,24.45
2017-06-21T01:35:22.632Z,24.55
2017-06-21T01:36:23.274Z,24.55
2017-06-21T01:37:23.918Z,24.50
2017-06-21T01:38:24.560Z,24.50
2017-06-21T01:39:25.205Z,24.45
2017-06-21T01:40:26.047Z,24.53
2017-06-21T01:41:26.690Z,24.48
2017-06-21T01:42:27.331Z,24.50
2017-06-21T01:43:27.975Z,24.57
2017-06-21T01:44:28.620Z,24.48
2017-06-21T01:45:29.261Z,24.48
2017-06-21T01:46:29.907Z,24.45
2017-06-21T01:47:30.552Z,24.47
2017-06-21T01:48:31.344Z,24.51
2017-06-21T01:49:31.988Z,24.50
2017-06-21T01:50:32.633Z,24.54
2017-06-21T01:51:33.278Z,24.55
2017-06-21T01:52:33.921Z,24.53
2017-06-21T01:53:34.565Z,24.51
2017-06-21T01:54:35.207Z,24.47
2017-06-21T01:55:35.852Z,24.48
2017-06-21T01:56:36.894Z,24.53
2017-06-21T01:57:37.536Z,24.39
2017-06-21T01:58:38.178Z,24.40
2017-06-21T01:59:38.772Z,24.40
2017-06-21T02:00:39.416Z,24.45
2017-06-21T02:01:40.059Z,24.53
2017-06-21T02:02:40.700Z,24.45
2017-06-21T02:03:41.346Z,24.50
2017-06-21T02:04:41.988Z,24.42
2017-06-21T02:05:42.781Z,24.48
2017-06-21T02:06:43.428Z,24.45
2017-06-21T02:07:44.072Z,24.51
2017-06-21T02:08:44.714Z,24.48
2017-06-21T02:09:45.359Z,24.55
2017-06-21T02:10:46.003Z,24.42
2017-06-21T02:11:46.598Z,24.40
2017-06-21T02:12:47.239Z,24.47
2017-06-21T02:13:48.088Z,24.50
2017-06-21T02:14:48.784Z,24.42
2017-06-21T02:15:49.427Z,24.42
2017-06-21T02:16:50.071Z,24.53
2017-06-21T02:17:50.719Z,24.53
2017-06-21T02:18:51.359Z,24.50
2017-06-21T02:19:52.007Z,24.43
2017-06-21T02:20:52.645Z,24.45
2017-06-21T02:21:53.491Z,24.47
2017-06-21T02:22:54.137Z,24.47
2017-06-21T02:23:54.779Z,24.50
2017-06-21T02:24:55.422Z,24.48
2017-06-21T02:25:56.069Z,24.51
2017-06-21T02:26:56.769Z,24.53
2017-06-21T02:27:57.413Z,24.51
2017-06-21T02:28:58.054Z,24.47
2017-06-21T02:29:58.850Z,24.50
2017-06-21T02:30:59.491Z,24.53
2017-06-21T02:32:00.133Z,24.55
2017-06-21T02:33:00.776Z,24.53
2017-06-21T02:34:01.418Z,24.39
2017-06-21T02:35:02.062Z,24.40
2017-06-21T02:36:02.706Z,24.43
2017-06-21T02:37:03.353Z,24.42
2017-06-21T02:38:03.993Z,24.50
2017-06-21T02:39:04.837Z,24.51
2017-06-21T02:40:05.482Z,24.51
2017-06-21T02:41:06.125Z,24.42
2017-06-21T02:42:06.773Z,24.54
2017-06-21T02:43:07.415Z,24.48
2017-06-21T02:44:08.056Z,24.39
2017-06-21T02:45:08.701Z,24.42
2017-06-21T02:46:09.345Z,24.50
2017-06-21T02:47:10.186Z,24.43
2017-06-21T02:48:10.829Z,24.39
2017-06-21T02:49:11.472Z,24.40
2017-06-21T02:50:12.116Z,24.42
2017-06-21T02:51:12.760Z,24.48
2017-06-21T02:52:13.402Z,24.42
2017-06-21T02:53:14.048Z,24.45
2017-06-21T02:54:14.693Z,24.43
2017-06-21T02:55:15.487Z,24.39
2017-06-21T02:56:16.132Z,24.36
2017-06-21T02:57:16.776Z,24.38
2017-06-21T02:58:17.418Z,24.36
2017-06-21T02:59:18.065Z,24.39
2017-06-21T03:00:18.705Z,24.42
2017-06-21T03:01:19.351Z,24.36
2017-06-21T03:02:19.993Z,24.38
2017-06-21T03:03:20.837Z,24.40
2017-06-21T03:04:21.434Z,24.40
2017-06-21T03:05:22.077Z,24.33
2017-06-21T03:06:22.718Z,24.40
2017-06-21T03:07:23.361Z,24.36
2017-06-21T03:08:24.013Z,24.36
2017-06-21T03:09:24.650Z,24.35
2017-06-21T03:10:25.294Z,24.39
2017-06-21T03:11:26.138Z,24.32
2017-06-21T03:12:26.785Z,24.24
2017-06-21T03:13:27.427Z,24.33
2017-06-21T03:14:28.075Z,24.28
2017-06-21T03:15:28.714Z,24.24
2017-06-21T03:16:29.357Z,24.26
2017-06-21T03:17:29.999Z,24.26
2017-06-21T03:18:30.642Z,24.24
2017-06-21T03:19:31.286Z,24.35
2017-06-21T03:20:32.228Z,24.26
2017-06-21T03:21:32.870Z,24.32
2017-06-21T03:22:33.513Z,24.33
2017-06-21T03:23:34.159Z,24.26
2017-06-21T03:24:34.804Z,24.28
2017-06-21T03:25:35.446Z,24.24
2017-06-21T03:26:36.089Z,24.28
2017-06-21T03:27:36.734Z,24.24
2017-06-21T03:28:37.574Z,24.24
2017-06-21T03:29:38.217Z,24.28
2017-06-21T03:30:38.859Z,24.23
2017-06-21T03:31:39.502Z,24.21
2017-06-21T03:32:40.146Z,24.26
2017-06-21T03:33:40.788Z,24.29
2017-06-21T03:34:41.432Z,24.26
2017-06-21T03:35:42.076Z,24.28
2017-06-21T03:36:42.870Z,24.32
2017-06-21T03:37:43.516Z,24.28
2017-06-21T03:38:44.160Z,24.26
2017-06-21T03:39:44.805Z,24.30
2017-06-21T03:40:45.450Z,24.29
2017-06-21T03:41:46.093Z,24.33
2017-06-21T03:42:46.734Z,24.26
2017-06-21T03:43:47.378Z,24.28
2017-06-21T03:44:48.221Z,24.29
2017-06-21T03:45:48.865Z,24.29
2017-06-21T03:46:49.506Z,24.26
2017-06-21T03:47:50.150Z,24.23
2017-06-21T03:48:50.794Z,24.21
2017-06-21T03:49:51.437Z,24.26
2017-06-21T03:50:52.081Z,24.32
2017-06-21T03:51:52.725Z,24.33
2017-06-21T03:52:53.368Z,24.29
2017-06-21T03:53:54.213Z,24.26
2017-06-21T03:54:54.857Z,24.28
2017-06-21T03:55:55.498Z,24.26
2017-06-21T03:56:56.144Z,24.30
2017-06-21T03:57:56.789Z,24.26
2017-06-21T03:58:57.433Z,24.29
2017-06-21T03:59:58.074Z,24.23
2017-06-21T04:00:58.718Z,24.26
2017-06-21T04:01:59.663Z,24.21
2017-06-21T04:03:00.306Z,24.26
2017-06-21T04:04:00.947Z,24.21
2017-06-21T04:05:01.592Z,24.21
2017-06-21T04:06:02.236Z,24.21
2017-06-21T04:07:02.878Z,24.20
2017-06-21T04:08:03.522Z,24.17
2017-06-21T04:09:04.164Z,24.26
2017-06-21T04:10:05.008Z,24.29
2017-06-21T04:11:05.656Z,24.21
2017-06-21T04:12:06.296Z,24.21
2017-06-21T04:13:06.939Z,24.23
2017-06-21T04:14:07.583Z,24.23
2017-06-21T04:15:08.225Z,24.29
2017-06-21T04:16:08.869Z,24.23
2017-06-21T04:17:09.513Z,24.21
2017-06-21T04:18:10.759Z,24.24
2017-06-21T04:19:11.412Z,24.24
2017-06-21T04:20:12.057Z,24.24
2017-06-21T04:21:12.699Z,24.21
2017-06-21T04:22:13.344Z,24.26
2017-06-21T04:23:13.984Z,24.17
2017-06-21T04:24:14.630Z,24.21
2017-06-21T04:25:15.275Z,24.17
2017-06-21T04:26:16.073Z,24.23
2017-06-21T04:27:16.769Z,24.18
2017-06-21T04:28:17.415Z,24.21
2017-06-21T04:29:18.056Z,24.21
2017-06-21T04:30:18.700Z,24.21
2017-06-21T04:31:19.344Z,24.21
2017-06-21T04:32:19.987Z,24.20
2017-06-21T04:33:20.631Z,24.20
2017-06-21T04:34:21.273Z,24.21
2017-06-21T04:35:22.170Z,24.23
2017-06-21T04:36:22.814Z,24.21
2017-06-21T04:37:23.454Z,24.20
2017-06-21T04:38:24.099Z,24.18
2017-06-21T04:39:24.740Z,24.24
2017-06-21T04:40:25.386Z,24.23
2017-06-21T04:41:26.028Z,24.24
2017-06-21T04:42:26.672Z,24.24
2017-06-21T04:43:27.765Z,24.21
2017-06-21T04:44:28.410Z,24.24
2017-06-21T04:45:29.055Z,24.26
2017-06-21T04:46:29.701Z,24.24
2017-06-21T04:47:30.345Z,24.23
2017-06-21T04:48:30.985Z,24.20
2017-06-21T04:49:31.630Z,24.21
2017-06-21T04:50:32.272Z,24.20
2017-06-21T04:51:33.117Z,24.20
2017-06-21T04:52:33.760Z,24.21
2017-06-21T04:53:34.405Z,24.17
2017-06-21T04:54:35.047Z,24.18
2017-06-21T04:55:35.694Z,24.26
2017-06-21T04:56:36.333Z,24.18
2017-06-21T04:57:36.977Z,24.21
2017-06-21T04:58:37.620Z,24.20
2017-06-21T04:59:38.467Z,24.20
2017-06-21T05:00:39.110Z,24.14
2017-06-21T05:01:39.754Z,24.26
2017-06-21T05:02:40.395Z,24.21
2017-06-21T05:03:41.040Z,24.18
2017-06-21T05:04:41.685Z,24.21
2017-06-21T05:05:42.327Z,24.23
2017-06-21T05:06:42.972Z,24.17
2017-06-21T05:07:43.614Z,24.23
2017-06-21T05:08:44.458Z,24.23
2017-06-21T05:09:45.102Z,24.20
2017-06-21T05:10:45.748Z,24.21
2017-06-21T05:11:46.391Z,24.26
2017-06-21T05:12:47.034Z,24.23
2017-06-21T05:13:47.677Z,24.18
2017-06-21T05:14:48.319Z,24.26
2017-06-21T05:15:48.961Z,24.23
2017-06-21T05:16:49.804Z,24.18
2017-06-21T05:17:50.450Z,24.18
2017-06-21T05:18:51.090Z,24.24
2017-06-21T05:19:51.734Z,24.21
2017-06-21T05:20:52.378Z,24.18
2017-06-21T05:21:53.031Z,24.23
2017-06-21T05:22:53.665Z,24.23
2017-06-21T05:23:54.309Z,24.18
2017-06-21T05:24:55.151Z,24.23
2017-06-21T05:25:55.796Z,24.24
2017-06-21T05:26:56.440Z,24.24
2017-06-21T05:27:57.085Z,24.18
2017-06-21T05:28:57.727Z,24.18
2017-06-21T05:29:58.369Z,24.26
2017-06-21T05:30:59.013Z,24.21
2017-06-21T05:31:59.657Z,24.23
2017-06-21T05:33:00.548Z,24.28
2017-06-21T05:34:01.192Z,24.18
2017-06-21T05:35:01.838Z,24.17
2017-06-21T05:36:02.481Z,24.26
2017-06-21T05:37:03.126Z,24.16
2017-06-21T05:38:03.767Z,24.23
2017-06-21T05:39:04.412Z,24.23
2017-06-21T05:40:05.056Z,24.23
2017-06-21T05:41:05.947Z,24.24
2017-06-21T05:42:06.594Z,24.21
2017-06-21T05:43:07.306Z,24.17
2017-06-21T05:44:07.938Z,24.24
2017-06-21T05:45:08.582Z,24.26
2017-06-21T05:46:09.226Z,24.17
2017-06-21T05:47:09.868Z,24.20
2017-06-21T05:48:10.509Z,24.13
2017-06-21T05:49:11.152Z,24.26
2017-06-21T05:50:12.046Z,24.21
2017-06-21T05:51:12.691Z,24.18
2017-06-21T05:52:13.333Z,24.23
2017-06-21T05:53:13.976Z,24.23
2017-06-21T05:54:14.620Z,24.20
2017-06-21T05:55:15.261Z,24.23
2017-06-21T05:56:15.905Z,24.20
2017-06-21T05:57:16.549Z,24.06
2017-06-21T05:58:17.394Z,24.18
2017-06-21T05:59:18.037Z,24.18
2017-06-21T06:00:18.679Z,24.23
2017-06-21T06:01:19.321Z,24.18
2017-06-21T06:02:19.969Z,24.20
2017-06-21T06:03:20.613Z,24.10
2017-06-21T06:04:21.258Z,24.16
2017-06-21T06:05:21.901Z,24.18
2017-06-21T06:06:22.743Z,24.14
2017-06-21T06:07:23.384Z,24.20
2017-06-21T06:08:24.031Z,24.16
2017-06-21T06:09:24.732Z,24.17
2017-06-21T06:10:25.376Z,24.11
2017-06-21T06:11:26.019Z,24.14
2017-06-21T06:12:26.663Z,24.11
2017-06-21T06:13:27.308Z,24.21
2017-06-21T06:14:28.198Z,24.16
2017-06-21T06:15:28.844Z,24.18
2017-06-21T06:16:29.487Z,24.20
2017-06-21T06:17:30.131Z,24.11
2017-06-21T06:18:30.773Z,24.18
2017-06-21T06:19:31.420Z,24.18
2017-06-21T06:20:32.061Z,24.17
2017-06-21T06:21:32.654Z,24.13
2017-06-21T06:22:33.297Z,24.10
2017-06-21T06:23:34.092Z,24.18
2017-06-21T06:24:34.735Z,24.17
2017-06-21T06:25:35.383Z,24.13
2017-06-21T06:26:36.080Z,24.14
2017-06-21T06:27:36.723Z,24.20
2017-06-21T06:28:37.367Z,24.13
2017-06-21T06:29:38.008Z,24.16
2017-06-21T06:30:38.654Z,24.20
2017-06-21T06:31:39.500Z,24.08
2017-06-21T06:32:40.140Z,24.14
2017-06-21T06:33:40.786Z,24.17
2017-06-21T06:34:41.428Z,24.20
2017-06-21T06:35:42.070Z,24.14
2017-06-21T06:36:42.718Z,24.16
2017-06-21T06:37:43.360Z,24.14
2017-06-21T06:38:44.004Z,24.13
2017-06-21T06:39:44.899Z,24.16
2017-06-21T06:40:49.894Z,24.17
2017-06-21T06:41:50.543Z,24.10
2017-06-21T06:42:51.180Z,24.18
2017-06-21T06:43:51.825Z,24.17
2017-06-21T06:44:52.470Z,24.18
2017-06-21T06:45:53.113Z,24.13
2017-06-21T06:46:53.756Z,24.20
2017-06-21T06:47:54.597Z,24.20
2017-06-21T06:48:55.244Z,24.18
2017-06-21T06:49:55.889Z,24.11
2017-06-21T06:50:56.531Z,24.20
2017-06-21T06:51:57.175Z,24.17
2017-06-21T06:52:57.816Z,24.13
2017-06-21T06:53:58.459Z,24.20
2017-06-21T06:54:59.102Z,24.20
2017-06-21T06:55:59.946Z,24.17
2017-06-21T06:57:00.589Z,24.16
2017-06-21T06:58:01.232Z,24.21
2017-06-21T06:59:01.875Z,24.26
2017-06-21T07:00:02.520Z,24.26
2017-06-21T07:01:03.219Z,24.20
2017-06-21T07:02:03.861Z,24.24
2017-06-21T07:03:04.503Z,24.17
2017-06-21T07:04:05.149Z,24.23
2017-06-21T07:05:06.095Z,24.21
2017-06-21T07:06:06.739Z,24.26
2017-06-21T07:07:07.381Z,24.28
2017-06-21T07:08:08.023Z,24.21
2017-06-21T07:09:08.667Z,24.24
2017-06-21T07:10:09.309Z,24.18
2017-06-21T07:11:09.954Z,24.30
2017-06-21T07:12:10.600Z,24.29
2017-06-21T07:13:11.642Z,24.21
2017-06-21T07:14:12.285Z,24.32
2017-06-21T07:15:12.927Z,24.29
2017-06-21T07:16:13.573Z,24.26
2017-06-21T07:17:14.218Z,24.28
2017-06-21T07:18:14.859Z,24.30
2017-06-21T07:19:15.502Z,24.26
2017-06-21T07:20:16.147Z,24.28
2017-06-21T07:21:16.940Z,24.28
2017-06-21T07:22:17.582Z,24.21
2017-06-21T07:23:18.227Z,24.29
2017-06-21T07:24:18.870Z,24.20
2017-06-21T07:25:19.511Z,24.29
2017-06-21T07:26:20.154Z,24.28
2017-06-21T07:27:20.798Z,24.28
2017-06-21T07:28:21.444Z,24.29
2017-06-21T07:29:22.285Z,24.28
2017-06-21T07:30:22.933Z,24.29
2017-06-21T07:31:23.574Z,24.24
2017-06-21T07:32:24.217Z,24.21
2017-06-21T07:33:24.860Z,24.21
2017-06-21T07:34:25.502Z,24.24
2017-06-21T07:35:26.148Z,24.20
2017-06-21T07:36:26.790Z,24.24
2017-06-21T07:37:27.634Z,24.24
2017-06-21T07:38:28.279Z,24.20
2017-06-21T07:39:28.924Z,24.23
2017-06-21T07:40:29.563Z,24.26
2017-06-21T07:41:30.208Z,24.21
2017-06-21T07:42:30.849Z,24.28
2017-06-21T07:43:31.491Z,24.24
2017-06-21T07:44:32.139Z,24.20
2017-06-21T07:45:32.781Z,24.30
2017-06-21T07:46:33.626Z,24.23
2017-06-21T07:47:34.272Z,24.26
2017-06-21T07:48:34.913Z,24.28
2017-06-21T07:49:35.557Z,24.28
2017-06-21T07:50:36.203Z,24.28
2017-06-21T07:51:36.846Z,24.24
2017-06-21T07:52:37.490Z,24.24
2017-06-21T07:53:38.133Z,24.24
2017-06-21T07:54:38.975Z,24.23
2017-06-21T07:55:39.619Z,24.24
2017-06-21T07:56:40.264Z,24.29
2017-06-21T07:57:40.907Z,24.30
2017-06-21T07:58:41.501Z,24.26
2017-06-21T07:59:42.146Z,24.32
2017-06-21T08:00:42.787Z,24.24
2017-06-21T08:01:43.431Z,24.28
2017-06-21T08:02:44.224Z,24.24
2017-06-21T08:03:44.900Z,24.28
2017-06-21T08:04:45.512Z,24.29
2017-06-21T08:05:46.154Z,24.28
2017-06-21T08:06:46.799Z,24.30
2017-06-21T08:07:47.446Z,24.26
2017-06-21T08:08:48.090Z,24.26
2017-06-21T08:09:48.791Z,24.28
2017-06-21T08:10:49.637Z,24.29
2017-06-21T08:11:50.278Z,24.26
2017-06-21T08:12:50.923Z,24.24
2017-06-21T08:13:51.565Z,24.26
2017-06-21T08:14:52.209Z,24.32
2017-06-21T08:15:52.856Z,24.24
2017-06-21T08:16:53.504Z,24.24
2017-06-21T08:17:54.148Z,24.30
2017-06-21T08:18:54.791Z,24.21
2017-06-21T08:19:55.586Z,24.33
2017-06-21T08:20:56.231Z,24.21
2017-06-21T08:21:56.874Z,24.29
2017-06-21T08:22:57.521Z,24.32
2017-06-21T08:23:58.163Z,24.35
2017-06-21T08:24:58.805Z,24.33
2017-06-21T08:25:59.450Z,24.35
2017-06-21T08:27:00.093Z,24.39
2017-06-21T08:28:00.937Z,24.38
2017-06-21T08:29:01.584Z,24.35
2017-06-21T08:30:02.225Z,24.35
2017-06-21T08:31:02.866Z,24.36
2017-06-21T08:32:03.511Z,24.40
2017-06-21T08:33:04.156Z,24.28
2017-06-21T08:34:04.800Z,24.28
2017-06-21T08:35:05.444Z,24.39
2017-06-21T08:36:06.239Z,24.33
2017-06-21T08:37:06.883Z,24.39
2017-06-21T08:38:07.531Z,24.40
2017-06-21T08:39:08.230Z,24.36
2017-06-21T08:40:08.875Z,24.36
2017-06-21T08:41:09.516Z,24.39
2017-06-21T08:42:10.161Z,24.36
2017-06-21T08:43:10.807Z,24.30
2017-06-21T08:44:11.650Z,24.24
2017-06-21T08:45:12.295Z,24.42
2017-06-21T08:46:12.940Z,24.36
2017-06-21T08:47:13.585Z,24.36
2017-06-21T08:48:14.231Z,24.36
2017-06-21T08:49:14.877Z,24.36
2017-06-21T08:50:15.523Z,24.33
2017-06-21T08:51:16.215Z,24.33
2017-06-21T08:52:16.860Z,24.38
2017-06-21T08:53:17.709Z,24.39
2017-06-21T08:54:18.347Z,24.33
2017-06-21T08:55:18.991Z,24.36
2017-06-21T08:56:19.636Z,24.39
2017-06-21T08:57:20.282Z,24.33
2017-06-21T08:58:20.927Z,24.29
2017-06-21T08:59:21.571Z,24.33
2017-06-21T09:00:22.213Z,24.39
2017-06-21T09:01:23.307Z,24.40
2017-06-21T09:02:23.952Z,24.33
2017-06-21T09:03:24.598Z,24.39
2017-06-21T09:04:25.241Z,24.35
2017-06-21T09:05:25.884Z,24.39
2017-06-21T09:06:26.528Z,24.35
2017-06-21T09:07:27.174Z,24.36
2017-06-21T09:08:27.816Z,24.35
2017-06-21T09:09:28.663Z,24.35
2017-06-21T09:10:29.307Z,24.35
2017-06-21T09:11:29.952Z,24.38
2017-06-21T09:12:30.596Z,24.38
2017-06-21T09:13:31.293Z,24.36
2017-06-21T09:14:31.934Z,24.42
2017-06-21T09:15:32.578Z,24.39
2017-06-21T09:16:33.223Z,24.39
2017-06-21T09:17:34.117Z,24.42
2017-06-21T09:18:34.764Z,24.38
2017-06-21T09:19:35.407Z,24.38
2017-06-21T09:20:36.052Z,24.38
2017-06-21T09:21:36.696Z,24.36
2017-06-21T09:22:37.341Z,24.38
2017-06-21T09:23:37.985Z,24.38
2017-06-21T09:24:38.631Z,24.38
2017-06-21T09:25:39.625Z,24.40
2017-06-21T09:26:40.269Z,24.39
2017-06-21T09:27:40.914Z,24.45
2017-06-21T09:28:41.560Z,24.40
2017-06-21T09:29:42.205Z,24.40
2017-06-21T09:30:42.846Z,24.42
2017-06-21T09:31:43.492Z,24.42
2017-06-21T09:32:44.136Z,24.43
2017-06-21T09:33:44.778Z,24.40
2017-06-21T09:34:45.623Z,24.50
2017-06-21T09:35:46.269Z,24.51
2017-06-21T09:36:46.910Z,24.48
2017-06-21T09:37:47.555Z,24.54
2017-06-21T09:38:48.199Z,24.47
2017-06-21T09:39:48.845Z,24.50
2017-06-21T09:40:49.487Z,24.51
2017-06-21T09:41:50.134Z,24.50
2017-06-21T09:42:50.931Z,24.58
2017-06-21T09:43:51.574Z,24.53
2017-06-21T09:44:52.218Z,24.53
2017-06-21T09:45:52.864Z,24.53
2017-06-21T09:46:53.511Z,24.47
2017-06-21T09:47:54.158Z,24.47
2017-06-21T09:48:54.805Z,24.43
2017-06-21T09:49:55.452Z,24.60
2017-06-21T09:50:56.294Z,24.47
2017-06-21T09:51:56.942Z,24.45
2017-06-21T09:52:57.585Z,24.55
2017-06-21T09:53:58.228Z,24.53
2017-06-21T09:54:58.877Z,24.45
2017-06-21T09:55:59.522Z,24.47
2017-06-21T09:57:00.167Z,24.43
2017-06-21T09:58:00.813Z,24.61
2017-06-21T09:59:01.605Z,24.57
2017-06-21T10:00:02.252Z,24.63
2017-06-21T10:01:02.899Z,24.43
2017-06-21T10:02:03.545Z,24.50
2017-06-21T10:03:04.191Z,24.47
2017-06-21T10:04:04.836Z,24.55
2017-06-21T10:05:05.480Z,24.53
2017-06-21T10:06:06.123Z,24.60
2017-06-21T10:07:06.766Z,24.58
2017-06-21T10:08:07.612Z,24.53
2017-06-21T10:09:08.257Z,24.58
2017-06-21T10:10:08.901Z,24.58
2017-06-21T10:11:09.546Z,24.57
2017-06-21T10:12:10.190Z,24.58
2017-06-21T10:13:10.833Z,24.58
2017-06-21T10:14:11.478Z,24.54
2017-06-21T10:15:12.122Z,24.65
2017-06-21T10:16:12.969Z,24.57
2017-06-21T10:17:13.616Z,24.55
2017-06-21T10:18:14.256Z,24.58
2017-06-21T10:19:14.902Z,24.63
2017-06-21T10:20:15.544Z,24.61
2017-06-21T10:21:16.189Z,24.63
2017-06-21T10:22:16.836Z,24.61
2017-06-21T10:23:17.481Z,24.55
2017-06-21T10:24:18.326Z,24.66
2017-06-21T10:25:18.973Z,24.57
2017-06-21T10:26:19.619Z,24.57
2017-06-21T10:27:20.262Z,24.57
2017-06-21T10:28:20.908Z,24.55
2017-06-21T10:29:21.551Z,24.60
2017-06-21T10:30:22.200Z,24.66
2017-06-21T10:31:22.846Z,24.57
2017-06-21T10:32:23.644Z,24.57
2017-06-21T10:33:24.287Z,24.58
2017-06-21T10:34:24.929Z,24.65
2017-06-21T10:35:25.576Z,24.61
2017-06-21T10:36:26.221Z,24.57
2017-06-21T10:37:26.866Z,24.69
2017-06-21T10:38:27.509Z,24.65
2017-06-21T10:39:28.155Z,24.60
2017-06-21T10:40:28.997Z,24.55
2017-06-21T10:41:29.695Z,24.55
2017-06-21T10:42:30.388Z,24.55
2017-06-21T10:43:31.031Z,24.57
2017-06-21T10:44:31.675Z,24.58
2017-06-21T10:45:32.321Z,24.61
2017-06-21T10:46:32.969Z,24.65
2017-06-21T10:47:33.613Z,24.57
2017-06-21T10:48:34.256Z,24.54
2017-06-21T10:49:34.998Z,24.61
2017-06-21T10:50:35.644Z,24.60
2017-06-21T10:51:36.286Z,24.61
2017-06-21T10:52:36.933Z,24.61
2017-06-21T10:53:37.576Z,24.58
2017-06-21T10:54:38.218Z,24.60
2017-06-21T10:55:38.868Z,24.55
2017-06-21T10:56:39.570Z,24.58
2017-06-21T10:57:40.464Z,24.54
2017-06-21T10:58:41.109Z,24.53
2017-06-21T10:59:41.856Z,24.57
2017-06-21T11:00:42.501Z,24.60
2017-06-21T11:01:43.144Z,24.58
2017-06-21T11:02:43.789Z,24.57
2017-06-21T11:03:44.434Z,24.61
2017-06-21T11:04:45.079Z,24.57
2017-06-21T11:05:45.927Z,24.50
2017-06-21T11:06:46.575Z,24.58
2017-06-21T11:07:47.216Z,24.61
2017-06-21T11:08:47.863Z,24.54
2017-06-21T11:09:48.507Z,24.63
2017-06-21T11:10:49.154Z,24.58
2017-06-21T11:11:49.801Z,24.57
2017-06-21T11:12:50.443Z,24.58
2017-06-21T11:13:51.288Z,24.57
2017-06-21T11:14:51.931Z,24.58
2017-06-21T11:15:52.577Z,24.61
2017-06-21T11:16:53.221Z,24.61
2017-06-21T11:17:53.918Z,24.58
2017-06-21T11:18:54.562Z,24.51
2017-06-21T11:19:55.210Z,24.58
2017-06-21T11:20:55.855Z,24.58
2017-06-21T11:21:56.501Z,24.55
2017-06-21T11:22:57.295Z,24.58
2017-06-21T11:23:57.942Z,24.66
2017-06-21T11:24:58.587Z,24.55
2017-06-21T11:25:59.234Z,24.60
2017-06-21T11:26:59.879Z,24.63
2017-06-21T11:28:00.522Z,24.63
2017-06-21T11:29:01.168Z,24.60
2017-06-21T11:30:01.811Z,24.61
2017-06-21T11:31:02.705Z,24.66
2017-06-21T11:32:03.354Z,24.63
2017-06-21T11:33:03.998Z,24.63
2017-06-21T11:34:04.646Z,24.60
2017-06-21T11:35:05.292Z,24.66
2017-06-21T11:36:05.936Z,24.55
2017-06-21T11:37:06.580Z,24.74
2017-06-21T11:38:07.223Z,24.74
2017-06-21T11:39:08.118Z,24.73
2017-06-21T11:40:08.761Z,24.69
2017-06-21T11:41:09.408Z,24.70
2017-06-21T11:42:10.053Z,24.60
2017-06-21T11:43:10.698Z,24.66
2017-06-21T11:44:11.345Z,24.76
2017-06-21T11:45:11.987Z,24.70
2017-06-21T11:46:12.634Z,24.77
2017-06-21T11:47:13.486Z,24.74
2017-06-21T11:48:14.131Z,24.70
2017-06-21T11:49:14.775Z,24.76
2017-06-21T11:50:15.420Z,24.73
2017-06-21T11:51:16.068Z,24.78
2017-06-21T11:52:16.712Z,24.70
2017-06-21T11:53:17.355Z,24.76
2017-06-21T11:54:17.998Z,24.70
2017-06-21T11:55:18.893Z,24.84
2017-06-21T11:56:19.539Z,24.73
2017-06-21T11:57:20.182Z,24.77
2017-06-21T11:58:20.830Z,24.70
2017-06-21T11:59:21.473Z,24.68
2017-06-21T12:00:22.120Z,24.68
2017-06-21T12:01:22.762Z,24.65
2017-06-21T12:02:23.406Z,24.74
2017-06-21T12:03:24.051Z,24.78
2017-06-21T12:04:24.997Z,24.76
2017-06-21T12:05:25.639Z,24.76
2017-06-21T12:06:26.286Z,24.65
2017-06-21T12:07:26.932Z,24.69
2017-06-21T12:08:27.576Z,24.69
2017-06-21T12:09:28.223Z,24.68
2017-06-21T12:10:28.867Z,24.70
2017-06-21T12:11:29.512Z,24.70
2017-06-21T12:12:30.307Z,24.61
2017-06-21T12:13:30.952Z,24.70
2017-06-21T12:14:31.598Z,24.66
2017-06-21T12:15:32.243Z,24.66
2017-06-21T12:16:32.887Z,24.76
2017-06-21T12:17:33.539Z,24.66
2017-06-21T12:18:34.183Z,24.68
2017-06-21T12:19:34.827Z,24.70
2017-06-21T12:20:35.672Z,24.66
2017-06-21T12:21:36.318Z,24.76
2017-06-21T12:22:36.964Z,24.76
2017-06-21T12:23:37.608Z,24.74
2017-06-21T12:24:38.253Z,24.69
2017-06-21T12:25:38.894Z,24.69
2017-06-21T12:26:39.538Z,24.70
2017-06-21T12:27:40.183Z,24.73
2017-06-21T12:28:40.978Z,24.68
2017-06-21T12:29:41.621Z,24.77
2017-06-21T12:30:42.267Z,24.74
2017-06-21T12:31:42.912Z,24.68
2017-06-21T12:32:43.506Z,24.77
2017-06-21T12:33:44.151Z,24.69
2017-06-21T12:34:44.794Z,24.70
2017-06-21T12:35:45.438Z,24.73
2017-06-21T12:36:46.081Z,24.78
2017-06-21T12:37:46.926Z,24.68
2017-06-21T12:38:47.571Z,24.77
2017-06-21T12:39:48.217Z,24.73
2017-06-21T12:40:48.861Z,24.77
2017-06-21T12:41:49.503Z,24.76
2017-06-21T12:42:50.172Z,24.76
2017-06-21T12:43:50.793Z,24.70
2017-06-21T12:44:51.436Z,24.74
2017-06-21T12:45:52.285Z,24.74
2017-06-21T12:46:52.927Z,24.74
2017-06-21T12:47:53.570Z,24.80
2017-06-21T12:48:54.217Z,24.78
2017-06-21T12:49:54.863Z,24.80
2017-06-21T12:50:55.505Z,24.88
2017-06-21T12:51:56.153Z,24.77
2017-06-21T12:52:56.798Z,24.78
2017-06-21T12:53:57.596Z,24.77
2017-06-21T12:54:58.242Z,24.85
2017-06-21T12:55:58.885Z,24.80
2017-06-21T12:56:59.528Z,24.81
2017-06-21T12:58:00.173Z,24.86
2017-06-21T12:59:00.818Z,24.84
2017-06-21T13:00:01.416Z,24.85
2017-06-21T13:01:02.118Z,24.86